Flight Track Log - Related Links

Times and Time Zones

All times are in EDT time to prevent confusion due to time zone crossing. See the OPT330 flight status page for this flight to view local times or setup timezone preferences in your user account.

Time Position Orientation Groundspeed Altitude Reporting Facility
EDT Latitude Longitude Course Direction KTS MPH feet Rate Location/Type
Sun 07:55:28 PM 32.0600 -102.1422 90° East 210 242 5,800  Level Fort Worth Center
Sun 07:56:30 PM 32.0886 -102.0569 68° East 249 287 9,400 3,387 Climbing Fort Worth Center
Sun 07:57:32 PM 32.0969 -101.9686 84° East 263 303 12,800 2,661 Climbing Fort Worth Center
Sun 07:58:34 PM 32.1039 -101.8711 85° East 299 344 14,900 2,661 Climbing Fort Worth Center
Sun 07:59:36 PM 32.1117 -101.7506 86° East 359 413 18,300 3,048 Climbing Fort Worth Center
Sun 08:00:00 PM 32.1312 -101.7439 90° East  Level Estimated
Sun 08:00:38 PM 32.1208 -101.6261 85° East 377 434 21,200  Level Fort Worth Center
Sun 08:01:40 PM 32.1300 -101.4878 85° East 412 474 23,300 2,081 Climbing Fort Worth Center
Sun 08:02:42 PM 32.1397 -101.3472 85° East 426 490 25,500 2,323 Climbing Fort Worth Center
Sun 08:03:44 PM 32.1517 -101.1706 85° East 445 512 28,100 2,371 Climbing Fort Worth Center
Sun 08:04:46 PM 32.1608 -101.0169 86° East 464 534 30,400 1,403 Climbing Fort Worth Center
Sun 08:05:48 PM 32.1736 -100.8550 85° East 487 560 31,000 290 Climbing Fort Worth Center
Sun 08:06:50 PM 32.1831 -100.6850 86° East 515 593 31,000  Level Fort Worth Center
Sun 08:07:52 PM 32.1944 -100.5144 85° East 519 597 31,000  Level Fort Worth Center
Sun 08:08:54 PM 32.2033 -100.3489 86° East 514 592 31,000  Level Fort Worth Center
Sun 08:09:56 PM 32.2156 -100.1619 86° East 486 559 31,000  Level Fort Worth Center
Sun 08:10:58 PM 32.2239 -100.0100 86° East 472 543 31,000  Level Fort Worth Center
Sun 08:12:00 PM 32.2331 -99.8581 86° East 470 541 31,000  Level Fort Worth Center
Sun 08:13:02 PM 32.2322 -99.7083 90° East 465 535 31,000  Level Fort Worth Center
Sun 08:14:04 PM 32.2258 -99.5597 93° East 459 528 31,000  Level Fort Worth Center
Sun 08:15:06 PM 32.2217 -99.4094 92° East 459 528 31,000  Level Fort Worth Center
Sun 08:16:08 PM 32.2153 -99.2283 92° East 461 531 31,000  Level Fort Worth Center
Sun 08:17:10 PM 32.2097 -99.0789 92° East 459 528 31,000 -48 Level Fort Worth Center
Sun 08:18:12 PM 32.2025 -98.9297 93° East 459 528 30,900 -629 Descending Fort Worth Center
Sun 08:19:14 PM 32.1969 -98.7794 92° East 458 527 29,700 -1,161 Descending Fort Worth Center
Sun 08:20:16 PM 32.1900 -98.6236 93° East 470 541 28,500 -1,500 Descending Fort Worth Center
Sun 08:21:18 PM 32.1844 -98.4383 92° East 473 544 26,600 -1,942 Descending Fort Worth Center
Sun 08:26:02 PM 32.2415 -97.7812 46° Northeast 415 478 17,300 -1,926 Descending FlightAware ADS-B
Sun 08:26:42 PM 32.2790 -97.7358 46° Northeast 402 463 16,200 -1,800 Descending FlightAware ADS-B
Sun 08:27:22 PM 32.3461 -97.6553 45° Northeast 390 449 14,900 -2,160 Descending FlightAware ADS-B
Sun 08:27:57 PM 32.3901 -97.6025 45° Northeast 382 440 13,500 -2,104 Descending FlightAware ADS-B
Sun 08:28:39 PM 32.4376 -97.5456 46° Northeast 371 427 12,200 -1,412 Descending FlightAware ADS-B
Sun 08:29:22 PM 32.4884 -97.4847 46° Northeast 341 392 11,500 -506 Descending FlightAware ADS-B
Sun 08:30:02 PM 32.5345 -97.4293 46° Northeast 339 390 11,500  Level FlightAware ADS-B
Sun 08:31:04 PM 32.6042 -97.3453 46° Northeast 349 402 11,500  Level FlightAware ADS-B
Sun 08:31:44 PM 32.6476 -97.2928 46° Northeast 350 403 11,500  Level FlightAware ADS-B
Sun 08:32:24 PM 32.6928 -97.2381 46° Northeast 302 348 11,500  Level FlightAware ADS-B
Sun 08:33:03 PM 32.7255 -97.1986 44° Northeast 284 327 11,500  Level FlightAware ADS-B
Sun 08:33:24 PM 32.7502 -97.1780 21° North 288 331 11,500  Level FlightAware ADS-B
Sun 08:33:43 PM 32.7781 -97.1718 North 289 333 11,500 -450 Level FlightAware ADS-B
Sun 08:34:04 PM 32.8032 -97.1740 356° North 296 341 11,200 -837 Descending FlightAware ADS-B
Sun 08:34:26 PM 32.8278 -97.1755 357° North 288 331 10,900 -800 Descending FlightAware ADS-B
Sun 08:34:34 PM 32.8358 -97.1755 North 287 330 10,800 -1,286 Descending FlightAware ADS-B
Sun 08:34:54 PM 32.8626 -97.1686 20° North 285 328 10,300 -1,463 Descending FlightAware ADS-B
Sun 08:35:15 PM 32.8852 -97.1527 38° Northeast 282 325 9,800 -2,250 Descending FlightAware ADS-B
Sun 08:35:18 PM 32.8930 -97.1438 48° Northeast 279 321 9,400 -1,429 Descending FlightAware ADS-B
Sun 08:35:36 PM 32.9036 -97.1272 56° Northeast 275 316 9,300 -1,154 Descending FlightAware ADS-B
Sun 08:35:44 PM 32.9117 -97.1056 71° East 267 307 8,900 -1,714 Descending FlightAware ADS-B
Sun 08:36:04 PM 32.9170 -97.0876 70° East 268 308 8,500 -2,341 Descending FlightAware ADS-B
Sun 08:36:25 PM 32.9268 -97.0568 69° East 237 273 7,300 -3,158 Descending FlightAware ADS-B
Sun 08:36:42 PM 32.9348 -97.0313 70° East 217 250 6,500 -2,462 Descending FlightAware ADS-B
Sun 08:37:04 PM 32.9373 -97.0234 70° East 213 245 5,700 -2,571 Descending FlightAware ADS-B
Sun 08:37:17 PM 32.9460 -96.9939 75° East 203 234 5,000 -1,548 Descending FlightAware ADS-B
Sun 08:37:35 PM 32.9485 -96.9827 75° East 201 231 4,900 -1,421 Descending FlightAware ADS-B
Sun 08:37:55 PM 32.9481 -96.9603 109° East 191 220 4,100 -2,571 Descending FlightAware ADS-B
Sun 08:38:03 PM 32.9433 -96.9520 131° Southeast 187 215 3,700 -2,667 Descending FlightAware ADS-B
Sun 08:38:40 PM 32.9167 -96.9167 131° Southeast 179 206 2,100 -1,546 Descending Dallas / Fort Worth TRACON
Sun 08:39:40 PM 32.8833 -96.8833 140° Southeast 135 155 1,200 -706 Descending Dallas / Fort Worth TRACON
Sun 08:40:56 PM 32.8583 -96.8586 140° Southeast 119 137 500 -553 Descending Fort Worth Center
Sun 08:42:00 PM 32.8471 -96.8518 118° Southeast  Level Estimated
Sun 08:49:00 PM 32.8471 -96.8518 North  Level Estimated
Sun 08:50:00 PM 32.8471 -96.8518 118° Southeast  Level Estimated

Login

Don't have an account? Register now (free) for customized features, flight alerts, and more!